Time;durP1;ratioP1;P1;durP2;ratioP2;P2;SDS_P1;SDS_P2;PMS_P1;PMS_P2;Temp;Humidity;BMP_temperature;BMP_pressure;BME280_temperature;BME280_humidity;BME280_pressure;Samples;Min_cycle;Max_cycle;Signal;HPM_P1;HPM_P2
2024/04/09 00:02:18;;;;;;;9.27;2.42;;;;;;;16.31;100.00;95297.66;5338658;26;20245;-74
2024/04/09 00:04:44;;;;;;;9.77;2.72;;;;;;;16.19;100.00;95307.47;5342689;26;20221;-75
2024/04/09 00:07:12;;;;;;;9.98;2.13;;;;;;;16.26;100.00;95302.84;5349413;26;20233;-78
2024/04/09 00:09:42;;;;;;;9.85;3.25;;;;;;;16.12;100.00;95306.78;5342408;26;20708;-74
2024/04/09 00:12:20;;;;;;;15.40;2.78;;;;;;;16.34;100.00;95307.81;5346749;26;20608;-75
2024/04/09 00:14:47;;;;;;;12.23;2.53;;;;;;;16.27;100.00;95314.31;5337933;26;20562;-74
2024/04/09 00:17:18;;;;;;;17.95;2.85;;;;;;;16.12;100.00;95322.72;5346351;26;20669;-74
2024/04/09 00:19:47;;;;;;;9.25;2.47;;;;;;;15.80;100.00;95325.19;5333528;26;20770;-77
2024/04/09 00:22:15;;;;;;;9.30;2.88;;;;;;;15.92;100.00;95322.28;5348083;26;20237;-77
2024/04/09 00:24:41;;;;;;;12.00;2.67;;;;;;;15.88;100.00;95315.81;5349750;26;20362;-74
2024/04/09 00:27:09;;;;;;;4.38;2.20;;;;;;;15.95;100.00;95313.84;5349823;26;20517;-74
2024/04/09 00:29:39;;;;;;;15.25;3.85;;;;;;;15.96;100.00;95306.66;5342017;26;20284;-75
2024/04/09 00:32:07;;;;;;;7.15;2.17;;;;;;;15.63;100.00;95310.94;5343459;26;20783;-74
2024/04/09 00:34:32;;;;;;;7.60;2.33;;;;;;;15.82;100.00;95301.81;5347722;26;20347;-74
2024/04/09 00:37:00;;;;;;;8.93;2.88;;;;;;;15.74;100.00;95299.53;5357442;26;20244;-77
2024/04/09 00:39:33;;;;;;;12.85;2.60;;;;;;;15.82;100.00;95299.16;5345485;26;20285;-79
2024/04/09 00:42:02;;;;;;;12.68;2.95;;;;;;;15.88;100.00;95301.72;5347941;26;20240;-73
2024/04/09 00:44:29;;;;;;;9.77;2.45;;;;;;;15.95;100.00;95303.22;5331594;26;20793;-76
2024/04/09 00:47:00;;;;;;;8.73;2.42;;;;;;;15.98;100.00;95305.41;5350561;26;20278;-73
2024/04/09 00:49:27;;;;;;;8.30;2.58;;;;;;;15.71;100.00;95305.31;5336818;26;20785;-74
2024/04/09 00:51:55;;;;;;;8.02;2.10;;;;;;;15.64;100.00;95309.91;5348387;26;20332;-78
2024/04/09 00:54:22;;;;;;;15.75;2.70;;;;;;;15.63;100.00;95317.06;5353085;26;20343;-74
2024/04/09 00:56:51;;;;;;;10.40;2.80;;;;;;;15.68;100.00;95311.06;5348767;26;20236;-74
2024/04/09 00:59:17;;;;;;;10.02;2.30;;;;;;;15.55;100.00;95316.59;5335210;26;20348;-73
2024/04/09 01:01:46;;;;;;;7.70;2.53;;;;;;;15.63;100.00;95306.47;5342318;26;20673;-74
2024/04/09 01:04:14;;;;;;;10.35;2.40;;;;;;;15.62;100.00;95312.00;5343673;26;20360;-75
2024/04/09 01:06:43;;;;;;;11.65;2.42;;;;;;;15.42;100.00;95308.84;5339640;26;20565;-78
2024/04/09 01:09:09;;;;;;;9.65;2.63;;;;;;;15.32;100.00;95308.59;5335842;26;20321;-74
2024/04/09 01:11:38;;;;;;;11.35;2.92;;;;;;;15.32;100.00;95308.59;5332306;26;20222;-73
2024/04/09 01:14:03;;;;;;;10.25;2.60;;;;;;;15.31;100.00;95301.66;5339426;26;20263;-73
2024/04/09 01:16:32;;;;;;;11.15;3.28;;;;;;;15.27;100.00;95305.81;5338064;26;20232;-76
2024/04/09 01:18:58;;;;;;;14.38;2.97;;;;;;;15.19;100.00;95303.47;5340230;26;20293;-78
2024/04/09 01:21:29;;;;;;;6.10;2.00;;;;;;;15.42;100.00;95306.19;5336711;26;20251;-74
2024/04/09 01:23:58;;;;;;;7.63;2.38;;;;;;;15.36;100.00;95299.97;5346870;26;20287;-77
2024/04/09 01:26:27;;;;;;;5.63;1.92;;;;;;;15.08;100.00;95298.13;5340366;26;20221;-78
2024/04/09 01:28:54;;;;;;;8.43;3.45;;;;;;;15.02;100.00;95301.66;5346924;26;20296;-74
2024/04/09 01:31:24;;;;;;;13.60;2.42;;;;;;;14.98;100.00;95306.66;5336835;26;21145;-73
2024/04/09 01:33:51;;;;;;;10.38;1.98;;;;;;;14.96;100.00;95303.38;5347322;26;20355;-78
2024/04/09 01:36:20;;;;;;;8.27;2.25;;;;;;;14.97;100.00;95301.53;5345878;26;20233;-74
2024/04/09 01:38:45;;;;;;;11.82;2.08;;;;;;;15.04;100.00;95300.41;5345957;26;20415;-78
2024/04/09 01:41:16;;;;;;;8.68;1.80;;;;;;;15.00;100.00;95304.56;5339542;26;20625;-74
2024/04/09 01:43:42;;;;;;;6.88;2.35;;;;;;;14.75;100.00;95301.25;5341121;26;20236;-74
2024/04/09 01:46:11;;;;;;;11.77;2.10;;;;;;;14.90;100.00;95304.28;5341041;26;20233;-80
2024/04/09 01:48:37;;;;;;;8.40;2.42;;;;;;;14.87;100.00;95299.44;5341864;26;20347;-77
2024/04/09 01:51:11;;;;;;;9.02;2.00;;;;;;;14.96;100.00;95298.09;5329328;26;20233;-74
2024/04/09 01:53:37;;;;;;;9.63;2.30;;;;;;;14.77;100.00;95303.66;5349736;26;20371;-78
2024/04/09 01:56:05;;;;;;;11.95;2.97;;;;;;;14.79;100.00;95293.63;5337911;26;20240;-74
2024/04/09 01:58:34;;;;;;;8.48;2.15;;;;;;;14.80;100.00;95298.75;5338149;26;21592;-76
2024/04/09 02:01:09;;;;;;;8.93;2.33;;;;;;;14.70;100.00;95295.81;5346090;26;20319;-76
2024/04/09 02:03:35;;;;;;;7.80;1.65;;;;;;;14.45;100.00;95298.81;5346338;26;20597;-77
2024/04/09 02:06:04;;;;;;;11.20;2.50;;;;;;;14.52;100.00;95294.22;5328324;26;22074;-75
2024/04/09 02:08:30;;;;;;;11.50;2.45;;;;;;;14.47;100.00;95297.53;5340028;26;20268;-77
2024/04/09 02:10:59;;;;;;;9.87;1.87;;;;;;;14.57;100.00;95305.75;5339724;26;20649;-75
2024/04/09 02:13:25;;;;;;;5.95;2.97;;;;;;;14.52;100.00;95299.53;5347143;26;20337;-77
2024/04/09 02:15:56;;;;;;;9.77;2.05;;;;;;;14.71;100.00;95312.53;5341302;26;20714;-78
2024/04/09 02:18:22;;;;;;;10.13;2.35;;;;;;;14.54;100.00;95302.78;5333089;26;21005;-78
2024/04/09 02:20:50;;;;;;;11.80;3.38;;;;;;;14.49;100.00;95306.09;5343842;26;20236;-76
2024/04/09 02:23:15;;;;;;;18.17;2.63;;;;;;;14.40;100.00;95306.63;5347090;26;20243;-76
2024/04/09 02:25:44;;;;;;;5.75;1.73;;;;;;;14.39;100.00;95305.00;5346036;26;20726;-75
2024/04/09 02:28:09;;;;;;;7.95;2.05;;;;;;;14.49;100.00;95313.22;5339551;26;21138;-78
2024/04/09 02:30:37;;;;;;;15.43;2.10;;;;;;;14.50;100.00;95309.53;5350978;26;20279;-75
2024/04/09 02:33:06;;;;;;;13.13;2.13;;;;;;;14.68;100.00;95305.03;5349619;26;20579;-74
2024/04/09 02:35:34;;;;;;;10.30;2.92;;;;;;;14.56;100.00;95311.28;5340307;26;20248;-75
2024/04/09 02:38:00;;;;;;;17.20;3.17;;;;;;;14.61;100.00;95308.78;5350707;26;20750;-78
2024/04/09 02:40:28;;;;;;;11.43;2.33;;;;;;;14.45;100.00;95309.41;5340800;26;20278;-74
2024/04/09 02:42:56;;;;;;;8.15;2.05;;;;;;;14.46;100.00;95305.72;5346164;26;20731;-76
2024/04/09 02:45:24;;;;;;;11.15;2.65;;;;;;;14.51;100.00;95311.16;5326504;26;20936;-79
2024/04/09 02:47:51;;;;;;;8.55;2.70;;;;;;;14.33;100.00;95303.22;5333586;26;20237;-78
2024/04/09 02:50:22;;;;;;;10.82;2.78;;;;;;;14.67;100.00;95309.50;5348733;26;20253;-74
2024/04/09 02:52:49;;;;;;;22.38;2.97;;;;;;;14.54;100.00;95308.06;5346774;26;20636;-74
2024/04/09 02:55:18;;;;;;;11.90;2.50;;;;;;;14.68;100.00;95311.13;5338941;26;20236;-75
2024/04/09 02:57:47;;;;;;;8.80;2.07;;;;;;;14.74;100.00;95312.88;5340164;26;20602;-75
2024/04/09 03:00:19;;;;;;;9.10;2.88;;;;;;;14.63;100.00;95308.31;5335533;26;20599;-74
2024/04/09 03:02:49;;;;;;;9.30;1.97;;;;;;;14.66;100.00;95302.59;5341588;26;20747;-76
2024/04/09 03:05:17;;;;;;;6.35;2.15;;;;;;;14.58;100.00;95303.94;5331905;26;20228;-76
2024/04/09 03:07:45;;;;;;;14.33;2.47;;;;;;;14.79;100.00;95293.63;5336147;26;20275;-77
2024/04/09 03:10:14;;;;;;;11.80;2.70;;;;;;;14.68;100.00;95310.31;5333494;26;20790;-76
2024/04/09 03:12:39;;;;;;;5.20;2.10;;;;;;;14.67;100.00;95304.19;5329155;26;20284;-76
2024/04/09 03:15:08;;;;;;;11.40;2.80;;;;;;;14.70;100.00;95311.72;5331603;26;20241;-77
2024/04/09 03:17:34;;;;;;;7.00;2.00;;;;;;;14.74;100.00;95310.25;5340401;26;20284;-74
2024/04/09 03:20:04;;;;;;;11.45;2.60;;;;;;;14.68;100.00;95312.97;5334501;26;20788;-74
2024/04/09 03:22:29;;;;;;;7.30;2.45;;;;;;;14.69;100.00;95314.59;5346788;26;20263;-74
2024/04/09 03:25:00;;;;;;;7.63;2.40;;;;;;;14.83;100.00;95313.41;5337764;26;20241;-78
2024/04/09 03:27:26;;;;;;;8.63;2.13;;;;;;;14.71;100.00;95299.25;5335035;26;20684;-76
2024/04/09 03:29:54;;;;;;;7.78;2.63;;;;;;;14.68;100.00;95305.03;5345112;26;20236;-78
2024/04/09 03:32:20;;;;;;;7.35;2.85;;;;;;;14.73;100.00;95299.84;5331707;26;20347;-75
2024/04/09 03:34:49;;;;;;;10.93;2.22;;;;;;;14.57;100.00;95310.28;5340862;26;20283;-77
2024/04/09 03:37:14;;;;;;;7.43;2.30;;;;;;;14.55;100.00;95305.19;5340911;26;20284;-75
2024/04/09 03:39:42;;;;;;;9.80;2.13;;;;;;;14.55;100.00;95317.63;5341827;26;20286;-74
2024/04/09 03:42:13;;;;;;;5.73;1.93;;;;;;;14.81;100.00;95326.06;5337697;26;20796;-75
2024/04/09 03:44:39;;;;;;;4.30;1.92;;;;;;;14.48;100.00;95324.88;5340120;26;20263;-74
2024/04/09 03:47:07;;;;;;;12.85;2.17;;;;;;;14.48;100.00;95319.56;5334195;26;20440;-74
2024/04/09 03:49:34;;;;;;;5.85;1.92;;;;;;;14.42;100.00;95328.38;5340166;26;20778;-77
2024/04/09 03:52:02;;;;;;;6.47;2.40;;;;;;;14.22;100.00;95325.97;5338208;26;20331;-75
2024/04/09 03:54:28;;;;;;;10.43;3.13;;;;;;;14.15;100.00;95324.44;5346699;26;20236;-74
2024/04/09 03:56:59;;;;;;;8.10;2.53;;;;;;;14.26;100.00;95321.06;5339003;26;20470;-75
2024/04/09 03:59:27;;;;;;;11.75;2.55;;;;;;;14.45;100.00;95309.41;5347535;26;20589;-77
2024/04/09 04:01:55;;;;;;;10.90;2.00;;;;;;;14.41;100.00;95310.88;5337329;26;20232;-78
2024/04/09 04:04:20;;;;;;;9.73;2.67;;;;;;;14.33;100.00;95308.53;5342682;26;21107;-78
2024/04/09 04:06:49;;;;;;;9.87;3.07;;;;;;;14.42;100.00;95320.44;5341051;26;20237;-74
2024/04/09 04:09:14;;;;;;;16.15;2.78;;;;;;;14.35;100.00;95317.06;5335471;26;20340;-75
2024/04/09 04:11:42;;;;;;;4.77;1.97;;;;;;;14.24;100.00;95321.28;5337351;26;20244;-75
2024/04/09 04:14:08;;;;;;;9.27;3.13;;;;;;;14.33;100.00;95321.78;5345657;26;20291;-76
2024/04/09 04:16:39;;;;;;;11.18;2.10;;;;;;;14.41;100.00;95309.03;5347123;26;20267;-74
2024/04/09 04:19:04;;;;;;;7.80;2.30;;;;;;;14.05;100.00;95314.31;5343832;26;20291;-75
2024/04/09 04:21:32;;;;;;;8.17;2.30;;;;;;;14.19;100.00;95325.59;5344092;26;21101;-76
2024/04/09 04:23:59;;;;;;;8.97;2.77;;;;;;;14.08;100.00;95323.69;5336295;26;20296;-76
2024/04/09 04:26:28;;;;;;;5.50;2.15;;;;;;;14.36;100.00;95321.34;5340861;26;20342;-78
2024/04/09 04:28:54;;;;;;;14.07;3.30;;;;;;;14.34;100.00;95326.03;5342187;26;20342;-75
2024/04/09 04:31:24;;;;;;;14.55;2.85;;;;;;;14.02;100.00;95337.78;5342046;26;20236;-76
2024/04/09 04:33:54;;;;;;;9.00;2.70;;;;;;;14.36;100.00;95329.28;5338943;26;20288;-76
2024/04/09 04:36:22;;;;;;;13.98;2.85;;;;;;;14.48;100.00;95324.88;5349639;26;20236;-74
2024/04/09 04:38:48;;;;;;;4.35;2.03;;;;;;;14.52;100.00;95334.00;5341321;26;20563;-74
2024/04/09 04:41:17;;;;;;;10.27;2.30;;;;;;;14.53;100.00;95335.63;5345617;26;20247;-74
2024/04/09 04:43:43;;;;;;;6.70;2.47;;;;;;;14.57;100.00;95336.78;5340407;26;20276;-74
2024/04/09 04:46:11;;;;;;;9.70;2.17;;;;;;;14.43;100.00;95335.31;5338339;26;20233;-74
2024/04/09 04:48:37;;;;;;;7.45;2.30;;;;;;;14.34;100.00;95345.41;5344811;26;20724;-75
2024/04/09 04:51:09;;;;;;;6.65;2.10;;;;;;;14.33;100.00;95357.06;5346678;26;20240;-76
2024/04/09 04:53:35;;;;;;;5.15;1.85;;;;;;;13.97;100.00;95369.41;5344701;26;20262;-76
2024/04/09 04:56:03;;;;;;;11.10;2.90;;;;;;;14.16;100.00;95368.44;5343461;26;20277;-74
2024/04/09 04:58:28;;;;;;;10.13;2.73;;;;;;;14.20;100.00;95381.00;5347638;26;20229;-78
2024/04/09 05:00:57;;;;;;;12.70;2.73;;;;;;;14.20;100.00;95366.97;5336613;26;20276;-79
2024/04/09 05:03:22;;;;;;;15.70;2.22;;;;;;;14.32;100.00;95378.44;5341246;26;20268;-73
2024/04/09 05:05:51;;;;;;;14.90;3.07;;;;;;;14.37;100.00;95383.91;5338329;26;20232;-75
2024/04/09 05:08:19;;;;;;;10.00;2.10;;;;;;;14.52;100.00;95379.84;5343437;26;20287;-73
2024/04/09 05:10:47;;;;;;;8.37;3.03;;;;;;;14.19;100.00;95389.19;5339851;26;20288;-74
2024/04/09 05:13:13;;;;;;;11.83;2.80;;;;;;;14.14;100.00;95386.38;5332502;26;20303;-73
2024/04/09 05:15:41;;;;;;;9.80;2.67;;;;;;;14.29;100.00;95389.50;5329040;26;20618;-73
2024/04/09 05:18:08;;;;;;;7.50;2.05;;;;;;;14.46;100.00;95385.22;5341173;26;20643;-73
2024/04/09 05:20:39;;;;;;;10.77;2.42;;;;;;;14.56;100.00;95372.28;5330749;26;21183;-76
2024/04/09 05:23:05;;;;;;;4.90;1.83;;;;;;;14.40;100.00;95376.31;5346234;26;20263;-73
2024/04/09 05:25:36;;;;;;;10.02;3.08;;;;;;;14.49;100.00;95390.09;5336722;26;20232;-74
2024/04/09 05:28:02;;;;;;;13.00;2.77;;;;;;;14.50;100.00;95397.00;5337080;26;20233;-74
2024/04/09 05:30:30;;;;;;;7.40;2.90;;;;;;;14.49;100.00;95414.75;5345071;26;20343;-75
2024/04/09 05:32:56;;;;;;;13.87;2.90;;;;;;;14.22;100.00;95431.97;5349864;26;20283;-76
2024/04/09 05:35:25;;;;;;;12.07;4.75;;;;;;;14.59;100.00;95422.19;5350181;26;20671;-76
2024/04/09 05:37:51;;;;;;;15.80;2.67;;;;;;;14.74;100.00;95416.31;5355859;26;20224;-76
2024/04/09 05:40:19;;;;;;;18.45;4.00;;;;;;;14.54;100.00;95416.78;5354143;26;20300;-76
2024/04/09 05:42:48;;;;;;;10.27;3.13;;;;;;;14.54;100.00;95404.31;5339361;26;20292;-74
2024/04/09 05:45:17;;;;;;;9.40;3.30;;;;;;;14.87;100.00;95410.84;5332809;26;20229;-74
2024/04/09 05:47:43;;;;;;;6.75;1.92;;;;;;;14.85;100.00;95417.41;5344639;26;20244;-73
2024/04/09 05:50:13;;;;;;;7.80;2.78;;;;;;;15.04;100.00;95419.81;5352362;26;20291;-76
2024/04/09 05:52:38;;;;;;;15.88;3.40;;;;;;;14.98;100.00;95419.91;5343953;26;20307;-75
2024/04/09 05:55:08;;;;;;;8.35;2.42;;;;;;;15.23;100.00;95428.59;5356104;26;20232;-76
2024/04/09 05:57:36;;;;;;;10.27;2.65;;;;;;;14.81;100.00;95438.25;5343360;26;20225;-74
2024/04/09 06:00:11;;;;;;;12.75;2.97;;;;;;;15.19;100.00;95446.78;5326838;26;20305;-75
2024/04/09 06:02:36;;;;;;;16.63;3.60;;;;;;;14.95;100.00;95454.84;5340396;26;20343;-74
2024/04/09 06:05:05;;;;;;;15.70;4.13;;;;;;;15.12;100.00;95454.03;5329078;26;20240;-75
2024/04/09 06:07:31;;;;;;;12.73;3.08;;;;;;;15.05;100.00;95457.78;5329554;26;20229;-75
2024/04/09 06:09:59;;;;;;;13.93;3.83;;;;;;;15.14;100.00;95449.28;5329077;26;20640;-75
2024/04/09 06:12:25;;;;;;;8.57;3.28;;;;;;;15.25;100.00;95467.16;5337961;26;20291;-75
2024/04/09 06:14:54;;;;;;;12.15;3.63;;;;;;;15.39;100.00;95466.75;5335328;26;20823;-74
2024/04/09 06:17:23;;;;;;;15.35;3.90;;;;;;;15.33;100.00;95466.84;5329572;26;20244;-74
2024/04/09 06:19:53;;;;;;;10.73;4.10;;;;;;;14.66;100.00;95479.44;5334591;26;20287;-75
2024/04/09 06:22:19;;;;;;;9.63;2.53;;;;;;;15.07;100.00;95482.22;5330425;26;20232;-76
2024/04/09 06:24:49;;;;;;;8.23;2.80;;;;;;;15.36;100.00;95484.97;5336974;26;20566;-74
2024/04/09 06:27:15;;;;;;;12.55;2.60;;;;;;;15.08;100.00;95489.97;5331550;26;20622;-76
2024/04/09 06:29:43;;;;;;;14.27;3.08;;;;;;;15.37;100.00;95486.59;5327988;26;20240;-75
2024/04/09 06:32:09;;;;;;;12.90;3.60;;;;;;;15.40;100.00;95491.44;5326852;26;20263;-74
2024/04/09 06:34:42;;;;;;;7.32;3.47;;;;;;;15.67;100.00;95490.03;5326355;26;20295;-76
2024/04/09 06:37:07;;;;;;;8.50;3.10;;;;;;;15.54;100.00;95495.53;5328726;26;20271;-74
2024/04/09 06:39:35;;;;;;;8.73;3.03;;;;;;;15.66;100.00;95505.19;5326748;26;20228;-76
2024/04/09 06:42:03;;;;;;;9.00;3.45;;;;;;;15.33;100.00;95511.97;5326948;26;20676;-74
2024/04/09 06:44:31;;;;;;;12.02;3.38;;;;;;;15.48;100.00;95507.06;5326813;26;20315;-76
2024/04/09 06:46:56;;;;;;;7.45;2.13;;;;;;;15.71;100.00;95515.94;5338692;26;20295;-74
2024/04/09 06:49:25;;;;;;;13.13;2.55;;;;;;;15.98;100.00;95523.28;5330392;26;20326;-76
2024/04/09 06:51:53;;;;;;;8.95;2.30;;;;;;;16.57;100.00;95524.03;5357331;26;21482;-75
2024/04/09 06:54:21;;;;;;;12.45;3.58;;;;;;;16.08;100.00;95528.88;5346869;26;20272;-76
2024/04/09 06:56:47;;;;;;;11.07;3.60;;;;;;;15.82;100.00;95525.78;5327887;26;20352;-75
2024/04/09 06:59:15;;;;;;;14.50;3.35;;;;;;;16.19;100.00;95536.09;5338676;26;20243;-74
2024/04/09 07:01:41;;;;;;;5.82;2.30;;;;;;;16.35;100.00;95534.63;5326228;26;20312;-76
2024/04/09 07:04:09;;;;;;;8.13;2.42;;;;;;;16.25;100.00;95547.63;5326190;26;20237;-74
2024/04/09 07:06:34;;;;;;;10.57;2.70;;;;;;;16.03;100.00;95551.88;5336710;26;20715;-74
2024/04/09 07:09:05;;;;;;;12.15;2.65;;;;;;;16.41;100.00;95549.66;5326578;26;20276;-74
2024/04/09 07:11:31;;;;;;;9.93;3.25;;;;;;;16.51;100.00;95550.72;5325617;26;20241;-76
2024/04/09 07:13:59;;;;;;;7.75;2.20;;;;;;;16.30;100.00;95548.59;5326827;26;20703;-74
2024/04/09 07:16:24;;;;;;;11.60;3.13;;;;;;;16.23;100.00;95563.81;5327023;26;20363;-75
2024/04/09 07:18:53;;;;;;;8.57;2.80;;;;;;;16.33;100.00;95556.13;5336243;26;20634;-77
2024/04/09 07:21:19;;;;;;;8.07;2.97;;;;;;;16.88;100.00;95552.94;5327404;26;20308;-75
2024/04/09 07:23:49;;;;;;;12.68;3.15;;;;;;;16.91;100.00;95557.00;5326052;26;20224;-76
2024/04/09 07:26:17;;;;;;;11.70;2.60;;;;;;;17.12;100.00;95558.03;5326237;26;20738;-74
2024/04/09 07:28:45;;;;;;;7.63;2.13;;;;;;;17.29;100.00;95566.13;5329023;26;20375;-75
2024/04/09 07:31:11;;;;;;;8.38;2.85;;;;;;;17.54;100.00;95567.47;5323673;26;20232;-75
2024/04/09 07:33:39;;;;;;;12.35;2.50;;;;;;;17.86;100.00;95560.66;5326590;26;20349;-74
2024/04/09 07:36:06;;;;;;;8.80;1.70;;;;;;;18.04;96.53;95555.13;5325440;26;20905;-77
2024/04/09 07:38:34;;;;;;;9.10;2.00;;;;;;;18.31;84.48;95566.84;5325119;26;20237;-70
2024/04/09 07:40:59;;;;;;;10.35;2.55;;;;;;;18.53;84.53;95563.22;5329084;26;20354;-74
2024/04/09 07:43:30;;;;;;;3.47;1.52;;;;;;;18.89;78.66;95563.56;5331647;26;20241;-72
2024/04/09 07:45:56;;;;;;;8.75;1.95;;;;;;;18.92;78.56;95584.44;5325305;26;20233;-72
2024/04/09 07:48:25;;;;;;;5.78;1.73;;;;;;;19.01;80.29;95580.28;5328301;26;20271;-71
2024/04/09 07:50:51;;;;;;;5.47;1.60;;;;;;;18.75;82.96;95591.63;5356538;26;20349;-75
2024/04/09 07:53:20;;;;;;;8.70;2.67;;;;;;;19.02;82.62;95589.94;5337305;26;20225;-72
2024/04/09 07:55:46;;;;;;;4.90;1.67;;;;;;;18.75;85.45;95594.31;5348461;26;20358;-76
2024/04/09 07:58:14;;;;;;;6.57;1.88;;;;;;;18.89;86.63;95592.94;5337933;26;20229;-75
2024/04/09 08:00:44;;;;;;;7.15;1.65;;;;;;;19.49;87.52;95589.31;5323782;26;21031;-75
2024/04/09 08:03:12;;;;;;;8.80;2.03;;;;;;;19.38;85.34;95598.22;5324207;26;20244;-75
2024/04/09 08:05:37;;;;;;;10.05;1.52;;;;;;;19.25;85.35;95606.59;5324022;26;20281;-72
2024/04/09 08:08:07;;;;;;;9.57;1.63;;;;;;;19.34;85.17;95612.34;5324218;26;20335;-76
2024/04/09 08:10:34;;;;;;;9.65;2.28;;;;;;;19.18;87.24;95616.66;5323470;26;20246;-71
2024/04/09 08:13:02;;;;;;;4.10;1.48;;;;;;;19.25;88.13;95616.50;5324393;26;20267;-74
2024/04/09 08:15:29;;;;;;;10.18;1.50;;;;;;;19.23;87.12;95621.25;5324356;26;20386;-74
2024/04/09 08:18:00;;;;;;;8.07;1.50;;;;;;;19.21;87.66;95629.50;5348672;26;20278;-71
2024/04/09 08:20:25;;;;;;;14.10;1.52;;;;;;;19.04;87.65;95643.88;5348157;26;20293;-71
2024/04/09 08:22:54;;;;;;;1.80;1.08;;;;;;;19.06;88.60;95639.16;5332096;26;20323;-72
2024/04/09 08:25:20;;;;;;;8.40;1.60;;;;;;;19.09;89.69;95647.50;5351099;26;20284;-71
2024/04/09 08:27:51;;;;;;;3.65;1.30;;;;;;;19.29;91.98;95644.31;5335009;26;20360;-73
2024/04/09 08:30:17;;;;;;;12.05;1.33;;;;;;;19.43;89.59;95653.63;5350811;26;20232;-75
2024/04/09 08:32:49;;;;;;;13.75;2.60;;;;;;;19.57;87.24;95656.50;5344823;26;20712;-71
2024/04/09 08:35:17;;;;;;;9.65;1.48;;;;;;;19.73;88.96;95660.22;5355525;26;20259;-71
2024/04/09 08:37:46;;;;;;;5.88;1.92;;;;;;;19.57;89.67;95675.22;5344663;26;20574;-73
2024/04/09 08:40:13;;;;;;;5.22;1.33;;;;;;;19.60;89.98;95688.09;5341297;26;20232;-72
2024/04/09 08:42:42;;;;;;;6.45;1.67;;;;;;;19.53;89.82;95689.31;5342395;26;20246;-72
2024/04/09 08:45:08;;;;;;;5.00;0.88;;;;;;;19.76;88.99;95687.25;5358358;26;20607;-75
2024/04/09 08:47:37;;;;;;;11.40;0.95;;;;;;;19.73;88.24;95681.59;5352380;26;20920;-77
2024/04/09 08:50:03;;;;;;;5.25;0.90;;;;;;;19.76;87.78;95689.13;5352383;26;20399;-77
2024/04/09 08:52:34;;;;;;;3.92;0.88;;;;;;;19.68;87.56;95706.38;5358663;26;20303;-70
2024/04/09 08:55:03;;;;;;;3.45;1.02;;;;;;;19.69;85.81;95705.34;5348047;26;20747;-76
2024/04/09 08:57:33;;;;;;;4.90;1.15;;;;;;;19.60;86.09;95704.13;5347728;26;20244;-71
2024/04/09 09:00:00;;;;;;;7.35;1.58;;;;;;;19.49;85.08;95701.56;5358200;26;20303;-72
2024/04/09 09:02:28;;;;;;;8.98;1.50;;;;;;;19.37;88.19;95706.16;5345477;26;20270;-73
2024/04/09 09:04:54;;;;;;;9.23;1.70;;;;;;;19.51;87.70;95702.09;5357804;26;20286;-73
2024/04/09 09:07:23;;;;;;;1.23;0.90;;;;;;;19.79;87.15;95700.16;5358370;26;21058;-73
2024/04/09 09:09:59;;;;;;;6.47;1.83;;;;;;;20.22;87.75;95711.69;5357415;26;20278;-73
2024/04/09 09:12:27;;;;;;;2.03;0.98;;;;;;;20.27;86.96;95706.41;5357401;26;20639;-72
2024/04/09 09:14:54;;;;;;;1.48;1.10;;;;;;;20.45;86.83;95708.75;5349425;26;21153;-75
2024/04/09 09:17:25;;;;;;;3.53;0.90;;;;;;;20.45;87.99;95718.69;5341500;26;20229;-75
2024/04/09 09:19:56;;;;;;;1.45;0.68;;;;;;;20.88;88.72;95725.63;5344395;26;20343;-76
2024/04/09 09:22:25;;;;;;;8.45;1.55;;;;;;;20.83;86.69;95721.28;5341397;26;20233;-71
2024/04/09 09:24:59;;;;;;;1.85;0.80;;;;;;;21.03;84.50;95735.69;5348542;26;20270;-74
2024/04/09 09:27:28;;;;;;;3.20;1.13;;;;;;;20.30;84.85;95737.22;5347677;26;20231;-73
2024/04/09 09:29:54;;;;;;;7.18;1.50;;;;;;;20.04;89.64;95747.84;5347158;26;20756;-71
2024/04/09 09:32:23;;;;;;;4.47;1.30;;;;;;;19.65;86.05;95741.63;5351486;26;20268;-73
2024/04/09 09:34:51;;;;;;;25.00;1.30;;;;;;;19.88;85.00;95752.16;5326466;26;20272;-75
2024/04/09 09:37:19;;;;;;;5.40;1.55;;;;;;;19.41;85.98;95747.41;5352033;26;20726;-74
2024/04/09 09:39:46;;;;;;;4.25;1.00;;;;;;;19.50;86.79;95742.44;5358319;26;20362;-71
2024/04/09 09:42:18;;;;;;;1.67;1.00;;;;;;;19.67;89.73;95742.19;5347940;26;20228;-71
2024/04/09 09:44:45;;;;;;;8.15;1.00;;;;;;;19.60;88.11;95757.59;5333640;26;20243;-74
2024/04/09 09:47:13;;;;;;;4.32;0.80;;;;;;;19.70;90.87;95757.75;5348029;26;20255;-73
2024/04/09 09:49:39;;;;;;;3.97;0.95;;;;;;;19.66;88.79;95766.50;5329610;26;20712;-73
2024/04/09 09:52:07;;;;;;;2.80;0.90;;;;;;;19.63;90.15;95775.81;5330399;26;20245;-73
2024/04/09 09:54:32;;;;;;;2.95;0.95;;;;;;;20.00;89.56;95774.28;5342350;26;20225;-75
2024/04/09 09:57:07;;;;;;;2.97;1.27;;;;;;;19.86;90.28;95782.88;5339252;26;20232;-71
2024/04/09 09:59:41;;;;;;;6.00;1.33;;;;;;;19.57;93.91;95821.41;5326884;26;20362;-72
2024/04/09 10:02:10;;;;;;;0.50;0.47;;;;;;;18.21;100.00;95823.50;5328851;26;20233;-75
2024/04/09 10:04:37;;;;;;;1.08;0.50;;;;;;;17.69;100.00;95844.91;5331075;26;20245;-75
2024/04/09 10:07:07;;;;;;;0.85;0.60;;;;;;;17.22;100.00;95853.81;5340472;26;20266;-75
2024/04/09 10:09:42;;;;;;;0.40;0.40;;;;;;;17.34;100.00;95852.03;5343688;26;20328;-74
2024/04/09 10:12:21;;;;;;;1.52;0.63;;;;;;;16.54;100.00;95859.63;5333923;26;20229;-75
2024/04/09 10:14:55;;;;;;;0.30;0.30;;;;;;;16.32;100.00;95876.25;5332829;26;20749;-75
2024/04/09 10:17:23;;;;;;;0.52;0.40;;;;;;;15.86;100.00;95881.16;5344194;26;20301;-75
2024/04/09 10:19:49;;;;;;;0.40;0.40;;;;;;;15.83;100.00;95894.06;5333207;26;20344;-77
2024/04/09 10:22:17;;;;;;;0.75;0.43;;;;;;;16.05;100.00;95901.44;5349761;26;20231;-76
2024/04/09 10:24:43;;;;;;;2.50;0.50;;;;;;;15.55;100.00;95908.78;5346947;26;20232;-74
2024/04/09 10:27:13;;;;;;;0.50;0.50;;;;;;;15.53;100.00;95924.13;5342512;26;20278;-72
2024/04/09 10:29:50;;;;;;;0.60;0.30;;;;;;;15.64;100.00;95921.59;5347796;26;20240;-74
2024/04/09 10:32:24;;;;;;;1.98;0.60;;;;;;;15.84;100.00;95909.78;5353437;26;20232;-74
2024/04/09 10:34:51;;;;;;;0.30;0.30;;;;;;;15.90;100.00;95930.19;5347228;26;20229;-76
2024/04/09 10:37:20;;;;;;;0.70;0.32;;;;;;;15.66;100.00;95937.34;5342524;26;20267;-79
2024/04/09 10:39:45;;;;;;;0.68;0.43;;;;;;;15.76;100.00;95932.31;5344252;26;20291;-78
2024/04/09 10:42:14;;;;;;;1.30;0.43;;;;;;;16.06;100.00;95936.78;5339525;26;20735;-79
2024/04/09 10:44:39;;;;;;;0.40;0.40;;;;;;;16.09;100.00;95944.34;5349907;26;20232;-73
2024/04/09 10:47:09;;;;;;;0.65;0.30;;;;;;;16.18;100.00;95959.78;5338819;26;20275;-76
2024/04/09 10:49:38;;;;;;;0.43;0.40;;;;;;;15.90;100.00;95962.06;5347193;26;20267;-74
2024/04/09 10:52:07;;;;;;;0.20;0.20;;;;;;;15.81;100.00;95970.53;5342407;26;21153;-76
2024/04/09 10:54:33;;;;;;;1.10;0.60;;;;;;;15.39;100.00;95973.84;5343962;26;20624;-76
2024/04/09 10:57:01;;;;;;;0.30;0.30;;;;;;;15.23;100.00;95986.00;5339298;26;20338;-75
2024/04/09 10:59:27;;;;;;;0.20;0.20;;;;;;;14.73;100.00;95989.41;5342986;26;20229;-74
2024/04/09 11:01:57;;;;;;;0.98;0.63;;;;;;;15.21;100.00;96007.44;5337580;26;20263;-78
2024/04/09 11:04:22;;;;;;;0.77;0.40;;;;;;;15.25;100.00;96000.69;5347682;26;20235;-74
2024/04/09 11:06:53;;;;;;;0.40;0.40;;;;;;;15.64;100.00;95995.16;5339596;26;20284;-73
2024/04/09 11:09:20;;;;;;;0.30;0.30;;;;;;;15.77;100.00;96005.69;5340952;26;20649;-76
2024/04/09 11:11:49;;;;;;;0.20;0.20;;;;;;;15.22;97.26;96000.28;5341019;26;20293;-74
2024/04/09 11:14:15;;;;;;;1.48;0.40;;;;;;;15.05;96.97;96017.69;5342288;26;20293;-76
2024/04/09 11:16:48;;;;;;;0.55;0.47;;;;;;;14.85;96.54;96033.63;5343311;26;20339;-74
2024/04/09 11:19:19;;;;;;;0.70;0.63;;;;;;;14.76;98.18;96034.88;5346000;26;20275;-77
2024/04/09 11:21:47;;;;;;;0.47;0.30;;;;;;;14.77;97.47;96036.50;5344286;26;20239;-74
2024/04/09 11:24:16;;;;;;;2.03;0.27;;;;;;;14.90;99.21;96041.78;5342951;26;20306;-77
2024/04/09 11:26:45;;;;;;;0.20;0.20;;;;;;;14.73;97.49;96051.22;5328500;26;20275;-78
2024/04/09 11:29:18;;;;;;;0.30;0.30;;;;;;;14.93;96.67;96064.44;5329385;26;20326;-72